| time (UTC) | temp F | wind direction | speed knots | gust knots | rain 1hr in | rain 24hr in | rain mn in | humidity % | barometer mb |
| 20260510100428 | 48 | 314 | 0.0 | 0.0 | 0.00 | 0.00 | 0.00 | 95 | 1010.9 |
| 20260510095925 | 49 | 314 | 0.0 | 0.0 | 0.00 | 0.00 | 0.00 | 95 | 1010.9 |
| 20260510095421 | 49 | 314 | 0.0 | 0.0 | 0.00 | 0.00 | 0.00 | 95 | 1010.9 |
| 20260510094920 | 49 | 314 | 0.0 | 0.0 | 0.00 | 0.00 | 0.00 | 95 | 1010.9 |
| 20260510094415 | 48 | 313 | 0.0 | 0.0 | 0.00 | 0.00 | 0.00 | 95 | 1010.8 |
| 20260510093911 | 49 | 313 | 0.0 | 0.0 | 0.00 | 0.00 | 0.00 | 95 | 1010.6 |
| 20260510093407 | 49 | 313 | 0.0 | 0.0 | 0.00 | 0.00 | 0.00 | 95 | 1010.7 |
| 20260510092904 | 49 | 314 | 0.0 | 0.0 | 0.00 | 0.00 | 0.00 | 95 | 1010.9 |
| 20260510092401 | 49 | 313 | 0.0 | 0.0 | 0.00 | 0.00 | 0.00 | 95 | 1010.6 |
| 20260510091855 | 49 | 313 | 0.0 | 0.0 | 0.00 | 0.00 | 0.00 | 95 | 1010.7 |
| 20260510091353 | 49 | 313 | 0.0 | 0.0 | 0.00 | 0.00 | 0.00 | 95 | 1010.8 |
| 20260510090849 | 49 | 313 | 0.0 | 0.0 | 0.00 | 0.00 | 0.00 | 95 | 1010.7 |
| 20260510090346 | 49 | 313 | 0.0 | 0.0 | 0.00 | 0.00 | 0.00 | 95 | 1010.6 |
| 20260510085841 | 49 | 313 | 0.0 | 0.0 | 0.00 | 0.00 | 0.00 | 95 | 1010.8 |
| 20260510085336 | 49 | 313 | 0.0 | 0.0 | 0.00 | 0.00 | 0.00 | 95 | 1010.7 |
| 20260510084832 | 49 | 314 | 0.0 | 0.0 | 0.00 | 0.00 | 0.00 | 95 | 1010.7 |
| 20260510084330 | 49 | 314 | 0.0 | 0.0 | 0.00 | 0.00 | 0.00 | 95 | 1010.8 |
| 20260510083826 | 50 | 314 | 0.0 | 0.0 | 0.00 | 0.00 | 0.00 | 95 | 1010.8 |
| 20260510083323 | 50 | 317 | 0.0 | 0.0 | 0.00 | 0.00 | 0.00 | 95 | 1010.6 |
| 20260510082818 | 50 | 335 | 0.0 | 0.9 | 0.00 | 0.00 | 0.00 | 95 | 1010.9 |
| 20260510082316 | 50 | 318 | 0.9 | 1.7 | 0.00 | 0.00 | 0.00 | 95 | 1010.8 |
| 20260510081815 | 50 | 325 | 0.0 | 0.9 | 0.00 | 0.00 | 0.00 | 95 | 1010.6 |
| 20260510081311 | 49 | 325 | 0.0 | 0.0 | 0.00 | 0.00 | 0.00 | 95 | 1010.4 |
| 20260510080807 | 48 | 42 | 1.7 | 2.6 | 0.00 | 0.00 | 0.00 | 95 | 1010.8 |
| 20260510080302 | 47 | 322 | 0.0 | 0.0 | 0.00 | 0.00 | 0.00 | 95 | 1010.1 |
| 20260510075759 | 47 | 322 | 0.0 | 0.0 | 0.00 | 0.00 | 0.00 | 95 | 1010.3 |
| 20260510075256 | 47 | 322 | 0.0 | 0.0 | 0.00 | 0.00 | 0.00 | 95 | 1010.1 |
| 20260510074753 | 47 | 322 | 0.0 | 0.0 | 0.00 | 0.00 | 0.00 | 95 | 1010.1 |
| 20260510074250 | 47 | 322 | 0.0 | 0.0 | 0.00 | 0.00 | 0.00 | 95 | 1009.9 |
| 20260510073746 | 47 | 322 | 0.0 | 0.0 | 0.00 | 0.00 | 0.00 | 95 | 1009.9 |
| 20260510073242 | 48 | 322 | 0.0 | 0.0 | 0.00 | 0.00 | 0.00 | 95 | 1009.9 |
| 20260510072737 | 48 | 322 | 0.0 | 0.0 | 0.00 | 0.00 | 0.00 | 95 | 1009.9 |
| 20260510072235 | 48 | 322 | 0.0 | 0.0 | 0.00 | 0.00 | 0.00 | 95 | 1009.9 |
| 20260510071731 | 48 | 322 | 0.0 | 0.0 | 0.00 | 0.00 | 0.00 | 95 | 1009.9 |
| 20260510071228 | 48 | 322 | 0.0 | 0.0 | 0.00 | 0.00 | 0.00 | 95 | 1009.9 |
| 20260510070726 | 48 | 322 | 0.0 | 0.0 | 0.00 | 0.00 | 0.00 | 95 | 1009.8 |
| 20260510070223 | 48 | 322 | 0.0 | 0.0 | 0.00 | 0.00 | 0.00 | 95 | 1009.7 |
| 20260510065718 | 48 | 322 | 0.0 | 0.0 | 0.00 | 0.00 | 0.00 | 95 | 1009.7 |
| 20260510065214 | 47 | 322 | 0.0 | 0.0 | 0.00 | 0.00 | 0.00 | 95 | 1009.7 |
| 20260510064711 | 48 | 322 | 0.0 | 0.0 | 0.00 | 0.00 | 0.00 | 95 | 1009.5 |
| 20260510064209 | 48 | 322 | 0.0 | 0.0 | 0.00 | 0.00 | 0.00 | 95 | 1009.5 |
| 20260510063705 | 48 | 322 | 0.0 | 0.0 | 0.00 | 0.00 | 0.00 | 95 | 1009.3 |
| 20260510063201 | 48 | 322 | 0.0 | 0.0 | 0.00 | 0.00 | 0.00 | 95 | 1009.4 |
| 20260510062658 | 48 | 322 | 0.0 | 0.0 | 0.00 | 0.00 | 0.00 | 95 | 1009.3 |
| 20260510062154 | 49 | 322 | 0.0 | 0.0 | 0.00 | 0.00 | 0.00 | 95 | 1009.3 |
| 20260510061649 | 48 | 322 | 0.0 | 0.0 | 0.00 | 0.00 | 0.00 | 95 | 1009.5 |
| 20260510061147 | 48 | 322 | 0.0 | 0.0 | 0.00 | 0.00 | 0.00 | 95 | 1009.5 |
| 20260510060643 | 48 | 322 | 0.0 | 0.0 | 0.00 | 0.00 | 0.00 | 95 | 1009.5 |
| 20260510060140 | 49 | 322 | 0.0 | 0.0 | 0.00 | 0.00 | 0.00 | 95 | 1009.7 |
| 20260510055636 | 49 | 322 | 0.0 | 0.0 | 0.00 | 0.00 | 0.00 | 95 | 1009.7 |
| 20260510055134 | 49 | 322 | 0.0 | 0.0 | 0.00 | 0.00 | 0.00 | 95 | 1009.6 |
| 20260510054629 | 49 | 322 | 0.0 | 0.0 | 0.00 | 0.00 | 0.00 | 95 | 1009.8 |
| 20260510054125 | 49 | 322 | 0.0 | 0.0 | 0.00 | 0.00 | 0.00 | 95 | 1009.6 |
| 20260510053624 | 49 | 322 | 0.0 | 0.0 | 0.00 | 0.00 | 0.00 | 95 | 1009.6 |
| 20260510053121 | 49 | 322 | 0.0 | 0.0 | 0.00 | 0.00 | 0.00 | 95 | 1009.8 |
| 20260510052617 | 49 | 322 | 0.0 | 0.0 | 0.00 | 0.00 | 0.00 | 95 | 1009.6 |
| 20260510052114 | 50 | 322 | 0.0 | 0.0 | 0.00 | 0.00 | 0.00 | 95 | 1009.7 |
| 20260510051609 | 50 | 322 | 0.0 | 0.0 | 0.00 | 0.00 | 0.00 | 95 | 1009.9 |
| 20260510051107 | 50 | 322 | 0.0 | 0.9 | 0.00 | 0.00 | 0.00 | 95 | 1009.9 |
| 20260510050604 | 50 | 322 | 0.0 | 0.0 | 0.00 | 0.00 | 0.00 | 95 | 1009.9 |
| 20260510050101 | 50 | 322 | 0.0 | 0.0 | 0.00 | 0.00 | 0.00 | 95 | 1010.0 |
| 20260510045558 | 50 | 322 | 0.0 | 0.0 | 0.00 | 0.00 | 0.00 | 95 | 1009.8 |
| 20260510045053 | 50 | 322 | 0.0 | 0.0 | 0.00 | 0.00 | 0.00 | 95 | 1010.1 |
| 20260510044550 | 50 | 322 | 0.0 | 0.0 | 0.00 | 0.00 | 0.00 | 95 | 1010.0 |
| 20260510044048 | 50 | 322 | 0.0 | 0.0 | 0.00 | 0.00 | 0.00 | 95 | 1010.0 |
| 20260510043543 | 50 | 322 | 0.0 | 0.0 | 0.00 | 0.00 | 0.00 | 95 | 1010.0 |
| 20260510043039 | 50 | 322 | 0.0 | 0.0 | 0.00 | 0.00 | 0.00 | 95 | 1010.0 |
| 20260510042539 | 50 | 322 | 0.0 | 0.0 | 0.00 | 0.00 | 0.00 | 95 | 1009.9 |
| 20260510042034 | 50 | 322 | 0.0 | 0.0 | 0.00 | 0.00 | 0.00 | 95 | 1009.7 |
| 20260510041532 | 51 | 322 | 0.0 | 0.0 | 0.00 | 0.00 | 0.00 | 95 | 1009.7 |
| 20260510041029 | 51 | 322 | 0.0 | 0.0 | 0.00 | 0.00 | 0.00 | 95 | 1010.0 |
| 20260510040525 | 51 | 322 | 0.0 | 0.0 | 0.00 | 0.00 | 0.00 | 95 | 1009.8 |
| 20260510040021 | 51 | 322 | 0.0 | 0.0 | 0.00 | 0.00 | 0.00 | 95 | 1010.1 |
| 20260510035518 | 51 | 322 | 0.0 | 0.0 | 0.00 | 0.00 | 0.00 | 95 | 1010.1 |
| 20260510035017 | 51 | 322 | 0.0 | 0.0 | 0.00 | 0.00 | 0.00 | 95 | 1010.0 |
| 20260510034516 | 51 | 322 | 0.0 | 0.0 | 0.00 | 0.00 | 0.00 | 95 | 1010.0 |
| 20260510034012 | 51 | 322 | 0.0 | 0.0 | 0.00 | 0.00 | 0.00 | 95 | 1009.8 |
| 20260510033508 | 52 | 322 | 0.0 | 0.0 | 0.00 | 0.00 | 0.00 | 95 | 1010.0 |
| 20260510033006 | 51 | 322 | 0.0 | 0.0 | 0.00 | 0.00 | 0.00 | 95 | 1009.9 |
| 20260510032503 | 51 | 322 | 0.0 | 0.0 | 0.00 | 0.00 | 0.00 | 95 | 1009.9 |
| 20260510031957 | 52 | 322 | 0.0 | 0.0 | 0.00 | 0.00 | 0.00 | 95 | 1010.0 |
| 20260510031453 | 52 | 322 | 0.0 | 0.0 | 0.00 | 0.00 | 0.00 | 95 | 1010.1 |
| 20260510030949 | 52 | 322 | 0.0 | 0.0 | 0.00 | 0.00 | 0.00 | 95 | 1009.8 |
| 20260510030444 | 52 | 322 | 0.0 | 0.0 | 0.00 | 0.00 | 0.00 | 95 | 1009.9 |
| 20260510025942 | 52 | 322 | 0.0 | 0.0 | 0.00 | 0.00 | 0.00 | 95 | 1009.6 |
| 20260510025439 | 52 | 322 | 0.0 | 0.0 | 0.00 | 0.00 | 0.00 | 95 | 1009.7 |
| 20260510024937 | 53 | 322 | 0.0 | 0.0 | 0.00 | 0.00 | 0.00 | 95 | 1009.6 |
| 20260510024433 | 53 | 322 | 0.0 | 0.0 | 0.00 | 0.00 | 0.00 | 95 | 1009.5 |
| 20260510023929 | 53 | 322 | 0.0 | 0.0 | 0.00 | 0.00 | 0.00 | 95 | 1009.6 |
| 20260510023425 | 53 | 322 | 0.0 | 0.0 | 0.00 | 0.00 | 0.00 | 95 | 1009.6 |
| 20260510022922 | 53 | 322 | 0.0 | 0.0 | 0.00 | 0.00 | 0.00 | 95 | 1009.6 |
| 20260510022421 | 54 | 322 | 0.0 | 0.0 | 0.00 | 0.00 | 0.00 | 94 | 1009.5 |
| 20260510021920 | 53 | 322 | 0.0 | 0.0 | 0.00 | 0.00 | 0.00 | 94 | 1009.7 |
| 20260510021419 | 54 | 322 | 0.0 | 0.0 | 0.00 | 0.00 | 0.00 | 94 | 1009.6 |
| 20260510020915 | 54 | 322 | 0.0 | 0.0 | 0.00 | 0.00 | 0.00 | 94 | 1009.6 |
| 20260510020410 | 54 | 322 | 0.0 | 0.0 | 0.00 | 0.00 | 0.00 | 94 | 1009.6 |
| 20260510015906 | 54 | 322 | 0.0 | 0.0 | 0.00 | 0.00 | 0.00 | 93 | 1009.5 |
| 20260510015402 | 54 | 322 | 0.0 | 0.0 | 0.00 | 0.00 | 0.00 | 93 | 1009.8 |
| 20260510014857 | 54 | 322 | 0.0 | 0.0 | 0.00 | 0.00 | 0.00 | 93 | 1009.4 |
| 20260510014355 | 54 | 322 | 0.0 | 0.0 | 0.00 | 0.00 | 0.00 | 93 | 1009.4 |
| 20260510013851 | 54 | 322 | 0.0 | 0.0 | 0.00 | 0.00 | 0.00 | 92 | 1009.4 |
| 20260510013346 | 55 | 322 | 0.0 | 0.0 | 0.00 | 0.00 | 0.00 | 92 | 1009.5 |
| 20260510012841 | 55 | 322 | 0.0 | 0.0 | 0.00 | 0.00 | 0.00 | 92 | 1009.4 |
| 20260510012342 | 55 | 322 | 0.0 | 0.0 | 0.00 | 0.00 | 0.00 | 92 | 1009.2 |
| 20260510011837 | 55 | 322 | 0.0 | 0.0 | 0.00 | 0.00 | 0.00 | 92 | 1009.2 |
| 20260510011332 | 55 | 322 | 0.0 | 0.0 | 0.00 | 0.00 | 0.00 | 91 | 1009.2 |
| 20260510010829 | 55 | 322 | 0.0 | 0.0 | 0.00 | 0.00 | 0.00 | 91 | 1009.0 |
| 20260510010326 | 55 | 322 | 0.0 | 0.0 | 0.00 | 0.00 | 0.00 | 91 | 1009.0 |
| 20260510005823 | 55 | 322 | 0.0 | 0.0 | 0.00 | 0.00 | 0.00 | 90 | 1009.0 |
| 20260510005319 | 56 | 322 | 0.0 | 0.0 | 0.00 | 0.00 | 0.00 | 89 | 1008.9 |
| 20260510004817 | 56 | 322 | 0.0 | 0.0 | 0.00 | 0.00 | 0.00 | 89 | 1008.9 |
| 20260510004314 | 57 | 322 | 0.0 | 0.0 | 0.00 | 0.00 | 0.00 | 88 | 1008.8 |
| 20260510003812 | 57 | 322 | 0.0 | 0.0 | 0.00 | 0.00 | 0.00 | 87 | 1008.9 |
| 20260510003308 | 57 | 322 | 0.0 | 0.0 | 0.00 | 0.00 | 0.00 | 86 | 1008.8 |
| 20260510002807 | 58 | 322 | 0.0 | 0.0 | 0.00 | 0.00 | 0.00 | 85 | 1008.8 |
| 20260510002307 | 58 | 322 | 0.0 | 0.0 | 0.00 | 0.00 | 0.00 | 84 | 1008.7 |
| 20260510001801 | 59 | 322 | 0.0 | 0.0 | 0.00 | 0.00 | 0.00 | 83 | 1008.8 |
| 20260510001259 | 59 | 322 | 0.0 | 0.0 | 0.00 | 0.00 | 0.00 | 82 | 1008.7 |
| 20260510000754 | 60 | 322 | 0.0 | 0.0 | 0.00 | 0.00 | 0.00 | 81 | 1008.7 |
| 20260510000253 | 60 | 322 | 0.0 | 0.0 | 0.00 | 0.00 | 0.00 | 80 | 1008.7 |
| 20260509235750 | 60 | 322 | 0.0 | 0.0 | 0.00 | 0.00 | 0.00 | 79 | 1008.5 |
| 20260509235246 | 61 | 322 | 0.0 | 0.0 | 0.00 | 0.00 | 0.00 | 79 | 1008.6 |
| 20260509234741 | 61 | 329 | 0.0 | 0.0 | 0.00 | 0.00 | 0.00 | 78 | 1008.6 |
| 20260509234239 | 62 | 333 | 0.0 | 0.0 | 0.00 | 0.00 | 0.00 | 77 | 1008.7 |
| 20260509233737 | 62 | 332 | 0.0 | 0.0 | 0.00 | 0.00 | 0.00 | 76 | 1008.7 |
| 20260509233234 | 63 | 331 | 0.0 | 0.0 | 0.00 | 0.00 | 0.00 | 75 | 1008.7 |
| 20260509232730 | 63 | 351 | 0.9 | 0.9 | 0.00 | 0.00 | 0.00 | 74 | 1008.5 |
| 20260509232227 | 64 | 322 | 0.0 | 0.0 | 0.00 | 0.00 | 0.00 | 73 | 1008.6 |
| 20260509231724 | 66 | 338 | 0.9 | 0.9 | 0.00 | 0.00 | 0.00 | 70 | 1008.7 |
| 20260509231221 | 66 | 333 | 0.9 | 0.9 | 0.00 | 0.00 | 0.00 | 69 | 1008.5 |
| 20260509230719 | 66 | 353 | 0.9 | 1.7 | 0.00 | 0.00 | 0.00 | 69 | 1008.5 |
| 20260509230215 | 66 | 340 | 0.9 | 1.7 | 0.00 | 0.00 | 0.00 | 68 | 1008.4 |
| 20260509225710 | 66 | 327 | 0.9 | 0.9 | 0.00 | 0.00 | 0.00 | 68 | 1008.4 |
| 20260509225206 | 67 | 320 | 0.0 | 0.0 | 0.00 | 0.00 | 0.00 | 67 | 1008.4 |
| 20260509224702 | 66 | 292 | 0.9 | 0.9 | 0.00 | 0.00 | 0.00 | 68 | 1008.5 |
| 20260509224159 | 67 | 307 | 0.9 | 1.7 | 0.00 | 0.00 | 0.00 | 67 | 1008.5 |
| 20260509223656 | 67 | 319 | 0.9 | 0.9 | 0.00 | 0.00 | 0.00 | 66 | 1008.4 |
| 20260509223153 | 67 | 282 | 1.7 | 1.7 | 0.00 | 0.00 | 0.00 | 65 | 1008.1 |
| 20260509222651 | 67 | 12 | 1.7 | 1.7 | 0.00 | 0.00 | 0.00 | 65 | 1008.4 |
| 20260509222146 | 67 | 329 | 0.9 | 1.7 | 0.00 | 0.00 | 0.00 | 65 | 1008.5 |
| 20260509221642 | 66 | 337 | 2.6 | 2.6 | 0.00 | 0.00 | 0.00 | 66 | 1008.6 |
| 20260509221137 | 66 | 300 | 0.9 | 1.7 | 0.00 | 0.00 | 0.00 | 66 | 1008.7 |
| 20260509220634 | 66 | 334 | 0.0 | 0.9 | 0.00 | 0.00 | 0.00 | 68 | 1008.7 |
| 20260509220130 | 65 | 324 | 0.0 | 0.9 | 0.00 | 0.00 | 0.00 | 70 | 1008.8 |
| 20260509215626 | 64 | 313 | 0.0 | 0.0 | 0.00 | 0.00 | 0.00 | 70 | 1008.7 |
| 20260509215123 | 64 | 312 | 0.9 | 0.9 | 0.00 | 0.00 | 0.00 | 71 | 1008.6 |
| 20260509214620 | 64 | 338 | 1.7 | 1.7 | 0.00 | 0.00 | 0.00 | 71 | 1008.6 |
| 20260509214117 | 64 | 335 | 0.0 | 0.9 | 0.00 | 0.00 | 0.00 | 71 | 1008.7 |
| 20260509213613 | 64 | 9 | 1.7 | 1.7 | 0.00 | 0.00 | 0.00 | 70 | 1008.7 |
| 20260509213109 | 64 | 353 | 1.7 | 2.6 | 0.00 | 0.00 | 0.00 | 69 | 1008.6 |
| 20260509212607 | 65 | 314 | 1.7 | 4.3 | 0.00 | 0.00 | 0.00 | 68 | 1008.6 |
| 20260509212104 | 64 | 351 | 1.7 | 1.7 | 0.00 | 0.00 | 0.00 | 70 | 1008.6 |
| 20260509211559 | 65 | 21 | 1.7 | 2.6 | 0.00 | 0.00 | 0.00 | 69 | 1008.5 |
| 20260509211057 | 65 | 329 | 0.0 | 0.9 | 0.00 | 0.00 | 0.00 | 69 | 1008.5 |
| 20260509210553 | 64 | 332 | 0.0 | 0.9 | 0.00 | 0.00 | 0.00 | 70 | 1008.5 |
| 20260509210049 | 65 | 333 | 1.7 | 2.6 | 0.00 | 0.00 | 0.00 | 69 | 1008.3 |
| 20260509205544 | 65 | 310 | 0.9 | 0.9 | 0.00 | 0.00 | 0.00 | 69 | 1008.6 |
| 20260509205039 | 64 | 340 | 1.7 | 2.6 | 0.00 | 0.00 | 0.00 | 70 | 1008.4 |
| 20260509204536 | 64 | 351 | 0.9 | 0.9 | 0.00 | 0.00 | 0.00 | 70 | 1008.4 |
| 20260509204032 | 64 | 41 | 1.7 | 1.7 | 0.00 | 0.00 | 0.00 | 69 | 1008.2 |
| 20260509203528 | 64 | 312 | 0.9 | 0.9 | 0.00 | 0.00 | 0.00 | 70 | 1008.5 |
| 20260509203027 | 64 | 326 | 0.0 | 0.9 | 0.00 | 0.00 | 0.00 | 70 | 1008.6 |
| 20260509202521 | 65 | 332 | 0.9 | 0.9 | 0.00 | 0.00 | 0.00 | 69 | 1008.6 |
| 20260509202017 | 66 | 13 | 0.9 | 0.9 | 0.00 | 0.00 | 0.00 | 68 | 1008.7 |
| 20260509201512 | 66 | 341 | 1.7 | 1.7 | 0.00 | 0.00 | 0.00 | 66 | 1008.7 |
| 20260509201009 | 66 | 321 | 0.0 | 0.9 | 0.00 | 0.00 | 0.00 | 67 | 1009.0 |
| 20260509200504 | 67 | 341 | 0.9 | 1.7 | 0.00 | 0.00 | 0.00 | 65 | 1009.0 |
| 20260509200001 | 67 | 319 | 0.0 | 0.9 | 0.00 | 0.00 | 0.00 | 65 | 1008.8 |
| 20260509195456 | 67 | 304 | 0.0 | 0.9 | 0.00 | 0.00 | 0.00 | 64 | 1008.8 |
| 20260509194955 | 67 | 354 | 0.9 | 1.7 | 0.00 | 0.00 | 0.00 | 64 | 1008.9 |
| 20260509194451 | 67 | 314 | 0.9 | 0.9 | 0.00 | 0.00 | 0.00 | 65 | 1008.9 |
| 20260509193949 | 67 | 320 | 0.9 | 1.7 | 0.00 | 0.00 | 0.00 | 65 | 1008.9 |
| 20260509193448 | 67 | 220 | 1.7 | 1.7 | 0.00 | 0.00 | 0.00 | 64 | 1008.9 |
| 20260509192945 | 66 | 313 | 0.9 | 1.7 | 0.00 | 0.00 | 0.00 | 64 | 1009.0 |
| 20260509192442 | 65 | 333 | 0.9 | 0.9 | 0.00 | 0.00 | 0.00 | 66 | 1009.0 |
| 20260509191937 | 65 | 336 | 1.7 | 2.6 | 0.00 | 0.00 | 0.00 | 65 | 1008.9 |
| 20260509191432 | 66 | 350 | 2.6 | 2.6 | 0.00 | 0.00 | 0.00 | 65 | 1008.9 |
| 20260509190928 | 65 | 308 | 0.9 | 1.7 | 0.00 | 0.00 | 0.00 | 67 | 1009.2 |
| 20260509190426 | 64 | 5 | 2.6 | 4.3 | 0.00 | 0.00 | 0.00 | 69 | 1009.3 |
| 20260509185923 | 64 | 53 | 3.5 | 6.1 | 0.00 | 0.00 | 0.00 | 70 | 1009.1 |
| 20260509185421 | 63 | 324 | 1.7 | 1.7 | 0.00 | 0.00 | 0.00 | 73 | 1009.2 |
| 20260509184917 | 63 | 5 | 0.9 | 1.7 | 0.00 | 0.00 | 0.00 | 79 | 1009.5 |
| 20260509184414 | 63 | 262 | 1.7 | 2.6 | 0.00 | 0.00 | 0.00 | 77 | 1009.8 |
| 20260509183911 | 63 | 323 | 0.9 | 1.7 | 0.00 | 0.00 | 0.00 | 75 | 1009.7 |
| 20260509183405 | 63 | 339 | 0.0 | 0.0 | 0.00 | 0.00 | 0.00 | 76 | 1009.8 |
| 20260509182902 | 63 | 305 | 0.0 | 0.0 | 0.00 | 0.00 | 0.00 | 77 | 1010.0 |
| 20260509182359 | 62 | 324 | 0.0 | 0.0 | 0.00 | 0.00 | 0.00 | 77 | 1009.8 |
| 20260509181856 | 62 | 313 | 0.0 | 0.9 | 0.00 | 0.00 | 0.00 | 77 | 1010.0 |
| 20260509181353 | 62 | 307 | 0.0 | 0.0 | 0.00 | 0.00 | 0.00 | 79 | 1010.1 |
| 20260509180851 | 62 | 305 | 0.0 | 0.0 | 0.00 | 0.00 | 0.00 | 79 | 1010.1 |
| 20260509180346 | 62 | 305 | 0.0 | 0.0 | 0.00 | 0.00 | 0.00 | 79 | 1010.1 |
| 20260509175843 | 63 | 304 | 0.9 | 0.9 | 0.00 | 0.00 | 0.00 | 77 | 1010.2 |
| 20260509175340 | 64 | 334 | 0.0 | 0.0 | 0.00 | 0.00 | 0.00 | 71 | 1010.3 |
| 20260509174836 | 64 | 334 | 0.0 | 0.0 | 0.00 | 0.00 | 0.00 | 70 | 1010.2 |
| 20260509174332 | 64 | 352 | 0.9 | 0.9 | 0.00 | 0.00 | 0.00 | 64 | 1010.2 |
| 20260509173827 | 64 | 290 | 0.0 | 0.9 | 0.00 | 0.00 | 0.00 | 63 | 1010.3 |
| 20260509173323 | 64 | 232 | 1.7 | 1.7 | 0.00 | 0.00 | 0.00 | 63 | 1010.3 |
| 20260509172820 | 64 | 318 | 0.9 | 0.9 | 0.00 | 0.00 | 0.00 | 64 | 1010.2 |
| 20260509172317 | 64 | 290 | 0.0 | 0.9 | 0.00 | 0.00 | 0.00 | 62 | 1010.3 |
| 20260509171812 | 64 | 289 | 0.0 | 0.9 | 0.00 | 0.00 | 0.00 | 62 | 1010.3 |
| 20260509171308 | 65 | 298 | 0.0 | 0.9 | 0.00 | 0.00 | 0.00 | 62 | 1010.3 |
| 20260509170805 | 65 | 292 | 0.0 | 0.9 | 0.00 | 0.00 | 0.00 | 60 | 1010.3 |
| 20260509170301 | 65 | 306 | 0.0 | 0.9 | 0.00 | 0.00 | 0.00 | 61 | 1010.4 |
| 20260509165800 | 65 | 311 | 0.0 | 0.0 | 0.00 | 0.00 | 0.00 | 61 | 1010.4 |
| 20260509165255 | 66 | 288 | 1.7 | 1.7 | 0.00 | 0.00 | 0.00 | 60 | 1010.2 |
| 20260509164751 | 65 | 309 | 0.9 | 0.9 | 0.00 | 0.00 | 0.00 | 61 | 1010.5 |
| 20260509164248 | 65 | 309 | 0.9 | 1.7 | 0.00 | 0.00 | 0.00 | 63 | 1010.4 |
| 20260509163745 | 64 | 308 | 0.0 | 0.0 | 0.00 | 0.00 | 0.00 | 64 | 1010.5 |
| 20260509163241 | 63 | 298 | 0.0 | 0.9 | 0.00 | 0.00 | 0.00 | 64 | 1010.3 |
| 20260509162740 | 63 | 283 | 0.9 | 1.7 | 0.00 | 0.00 | 0.00 | 64 | 1010.6 |
| 20260509162233 | 63 | 290 | 1.7 | 1.7 | 0.00 | 0.00 | 0.00 | 64 | 1010.4 |
| 20260509161729 | 64 | 252 | 0.9 | 0.9 | 0.00 | 0.00 | 0.00 | 64 | 1010.5 |
| 20260509161226 | 64 | 320 | 0.0 | 0.0 | 0.00 | 0.00 | 0.00 | 63 | 1010.5 |
| 20260509160721 | 64 | 318 | 0.0 | 0.0 | 0.00 | 0.00 | 0.00 | 63 | 1010.6 |
| 20260509160218 | 65 | 298 | 0.0 | 0.9 | 0.00 | 0.00 | 0.00 | 62 | 1010.2 |
| 20260509155713 | 64 | 290 | 0.9 | 1.7 | 0.00 | 0.00 | 0.00 | 63 | 1010.3 |
| 20260509155210 | 65 | 282 | 0.9 | 0.9 | 0.00 | 0.00 | 0.00 | 62 | 1010.3 |
| 20260509154706 | 65 | 307 | 0.9 | 0.9 | 0.00 | 0.00 | 0.00 | 60 | 1010.7 |
| 20260509154203 | 64 | 287 | 0.9 | 0.9 | 0.00 | 0.00 | 0.00 | 62 | 1010.5 |
| 20260509153700 | 65 | 278 | 0.9 | 1.7 | 0.00 | 0.00 | 0.00 | 61 | 1010.7 |
| 20260509153156 | 65 | 310 | 0.0 | 0.0 | 0.00 | 0.00 | 0.00 | 60 | 1010.6 |
| 20260509152652 | 65 | 322 | 1.7 | 1.7 | 0.00 | 0.00 | 0.00 | 61 | 1010.8 |
| 20260509152149 | 65 | 267 | 0.9 | 0.9 | 0.00 | 0.00 | 0.00 | 61 | 1010.8 |
| 20260509151646 | 64 | 293 | 0.9 | 0.9 | 0.00 | 0.00 | 0.00 | 63 | 1010.8 |
| 20260509151143 | 64 | 290 | 0.0 | 0.9 | 0.00 | 0.00 | 0.00 | 62 | 1011.1 |
| 20260509150641 | 63 | 299 | 0.0 | 0.0 | 0.00 | 0.00 | 0.00 | 63 | 1011.0 |
| 20260509150139 | 62 | 276 | 0.9 | 1.7 | 0.00 | 0.00 | 0.00 | 64 | 1011.0 |
| 20260509145635 | 63 | 222 | 0.9 | 1.7 | 0.00 | 0.00 | 0.00 | 65 | 1011.2 |
| 20260509145130 | 63 | 314 | 0.9 | 0.9 | 0.00 | 0.00 | 0.00 | 64 | 1011.3 |
| 20260509144627 | 63 | 295 | 0.9 | 0.9 | 0.00 | 0.00 | 0.00 | 63 | 1011.3 |
| 20260509144124 | 63 | 284 | 0.9 | 0.9 | 0.00 | 0.00 | 0.00 | 63 | 1011.2 |
| 20260509143621 | 63 | 303 | 0.0 | 0.0 | 0.00 | 0.00 | 0.00 | 64 | 1011.2 |
| 20260509143119 | 62 | 284 | 2.6 | 2.6 | 0.00 | 0.00 | 0.00 | 64 | 1011.3 |
| 20260509142614 | 62 | 267 | 0.9 | 0.9 | 0.00 | 0.00 | 0.00 | 66 | 1011.3 |
| 20260509142111 | 62 | 252 | 0.9 | 0.9 | 0.00 | 0.00 | 0.00 | 67 | 1011.2 |
| 20260509141607 | 62 | 283 | 0.9 | 0.9 | 0.00 | 0.00 | 0.00 | 68 | 1011.1 |
| 20260509141103 | 62 | 250 | 2.6 | 2.6 | 0.00 | 0.00 | 0.00 | 68 | 1011.1 |
| 20260509140600 | 61 | 264 | 2.6 | 2.6 | 0.00 | 0.00 | 0.00 | 68 | 1010.9 |
| 20260509140058 | 61 | 254 | 1.7 | 2.6 | 0.00 | 0.00 | 0.00 | 68 | 1011.1 |
| 20260509135555 | 62 | 315 | 3.5 | 6.1 | 0.00 | 0.00 | 0.00 | 69 | 1011.0 |
| 20260509135053 | 62 | 303 | 0.9 | 0.9 | 0.00 | 0.00 | 0.00 | 73 | 1011.0 |
| 20260509134549 | 61 | 285 | 0.9 | 0.9 | 0.00 | 0.00 | 0.00 | 73 | 1011.0 |
| 20260509134047 | 61 | 280 | 0.9 | 0.9 | 0.00 | 0.00 | 0.00 | 76 | 1011.1 |
| 20260509133544 | 61 | 310 | 0.9 | 1.7 | 0.00 | 0.00 | 0.00 | 75 | 1011.0 |
| 20260509133042 | 61 | 284 | 0.9 | 0.9 | 0.00 | 0.00 | 0.00 | 77 | 1010.9 |
| 20260509132540 | 61 | 302 | 0.0 | 0.9 | 0.00 | 0.00 | 0.00 | 78 | 1010.9 |
| 20260509132038 | 61 | 274 | 0.9 | 1.7 | 0.00 | 0.00 | 0.00 | 78 | 1010.9 |
| 20260509131533 | 60 | 298 | 0.9 | 0.9 | 0.00 | 0.00 | 0.00 | 79 | 1011.0 |
| 20260509131031 | 60 | 321 | 0.9 | 1.7 | 0.00 | 0.00 | 0.00 | 79 | 1011.1 |
| 20260509130526 | 60 | 298 | 0.9 | 1.7 | 0.00 | 0.00 | 0.00 | 79 | 1011.0 |
| 20260509130023 | 60 | 262 | 3.5 | 5.2 | 0.00 | 0.00 | 0.00 | 79 | 1011.0 |
| 20260509125520 | 60 | 315 | 0.0 | 0.9 | 0.00 | 0.00 | 0.00 | 80 | 1011.0 |
| 20260509125016 | 60 | 288 | 0.9 | 0.9 | 0.00 | 0.00 | 0.00 | 80 | 1011.1 |
| 20260509124513 | 60 | 308 | 2.6 | 2.6 | 0.00 | 0.00 | 0.00 | 79 | 1011.0 |
| 20260509124010 | 60 | 216 | 3.5 | 6.1 | 0.00 | 0.00 | 0.00 | 79 | 1011.0 |
| 20260509123508 | 60 | 214 | 2.6 | 2.6 | 0.00 | 0.00 | 0.00 | 79 | 1010.8 |
| 20260509123004 | 59 | 283 | 1.7 | 1.7 | 0.00 | 0.00 | 0.00 | 79 | 1011.0 |
| 20260509122500 | 59 | 272 | 2.6 | 2.6 | 0.00 | 0.00 | 0.00 | 79 | 1010.8 |
| 20260509121957 | 59 | 280 | 0.9 | 0.9 | 0.00 | 0.00 | 0.00 | 79 | 1010.8 |
| 20260509121454 | 59 | 236 | 0.9 | 0.9 | 0.00 | 0.00 | 0.00 | 79 | 1010.9 |
| 20260509120952 | 59 | 242 | 1.7 | 2.6 | 0.00 | 0.00 | 0.00 | 79 | 1010.9 |
| 20260509120450 | 59 | 235 | 2.6 | 4.3 | 0.00 | 0.00 | 0.00 | 79 | 1010.9 |
| 20260509115948 | 59 | 297 | 0.9 | 0.9 | 0.00 | 0.00 | 0.00 | 79 | 1010.9 |
| 20260509115445 | 59 | 333 | 2.6 | 2.6 | 0.00 | 0.00 | 0.00 | 79 | 1010.9 |
| 20260509114942 | 59 | 219 | 1.7 | 2.6 | 0.00 | 0.00 | 0.00 | 80 | 1010.9 |
| 20260509114440 | 59 | 268 | 1.7 | 2.6 | 0.00 | 0.00 | 0.00 | 80 | 1010.7 |
| 20260509113939 | 59 | 273 | 2.6 | 4.3 | 0.00 | 0.00 | 0.00 | 79 | 1010.9 |
| 20260509113436 | 58 | 257 | 1.7 | 4.3 | 0.00 | 0.00 | 0.00 | 80 | 1010.8 |
| 20260509112933 | 58 | 318 | 0.9 | 1.7 | 0.00 | 0.00 | 0.00 | 79 | 1010.7 |
| 20260509112430 | 58 | 269 | 1.7 | 1.7 | 0.00 | 0.00 | 0.00 | 79 | 1010.7 |
| 20260509111927 | 58 | 320 | 0.0 | 0.9 | 0.00 | 0.00 | 0.00 | 79 | 1010.8 |
| 20260509111425 | 58 | 339 | 1.7 | 2.6 | 0.00 | 0.00 | 0.00 | 79 | 1010.6 |
| 20260509110922 | 58 | 315 | 0.0 | 0.0 | 0.00 | 0.00 | 0.00 | 79 | 1010.6 |
| 20260509110417 | 58 | 314 | 0.9 | 0.9 | 0.00 | 0.00 | 0.00 | 79 | 1010.3 |
| 20260509105916 | 58 | 242 | 1.7 | 1.7 | 0.00 | 0.00 | 0.00 | 79 | 1010.6 |
| 20260509105414 | 58 | 303 | 0.0 | 0.0 | 0.00 | 0.00 | 0.00 | 78 | 1010.5 |
| 20260509104911 | 57 | 305 | 0.9 | 0.9 | 0.00 | 0.00 | 0.00 | 78 | 1010.4 |
| 20260509104408 | 57 | 300 | 0.0 | 0.0 | 0.00 | 0.00 | 0.00 | 77 | 1010.6 |
| 20260509103905 | 58 | 284 | 0.9 | 0.9 | 0.00 | 0.00 | 0.00 | 77 | 1010.4 |
| 20260509103402 | 57 | 306 | 0.0 | 0.9 | 0.00 | 0.00 | 0.00 | 77 | 1010.5 |
| 20260509102901 | 57 | 292 | 0.0 | 0.9 | 0.00 | 0.00 | 0.00 | 77 | 1010.4 |
| 20260509102358 | 57 | 296 | 0.0 | 0.0 | 0.00 | 0.00 | 0.00 | 77 | 1010.3 |
| 20260509101853 | 57 | 296 | 0.0 | 0.0 | 0.00 | 0.00 | 0.00 | 77 | 1010.3 |
| 20260509101349 | 57 | 298 | 0.0 | 0.0 | 0.00 | 0.00 | 0.00 | 77 | 1010.3 |
| 20260509100848 | 57 | 299 | 0.0 | 0.0 | 0.00 | 0.00 | 0.00 | 77 | 1010.5 |